sensor_id;sensor_type;location;lat;lon;timestamp;P1;durP1;ratioP1;P2;durP2;ratioP2
40993;SDS011;26722;43.212;27.932;2023-02-21T00:02:29;18.15;;;10.13;;
40993;SDS011;26722;43.212;27.932;2023-02-21T00:05:13;26.85;;;12.05;;
40993;SDS011;26722;43.212;27.932;2023-02-21T00:07:57;28.02;;;11.38;;
40993;SDS011;26722;43.212;27.932;2023-02-21T00:10:41;22.92;;;12.50;;
40993;SDS011;26722;43.212;27.932;2023-02-21T00:13:25;24.77;;;11.35;;
40993;SDS011;26722;43.212;27.932;2023-02-21T00:16:12;32.45;;;13.80;;
40993;SDS011;26722;43.212;27.932;2023-02-21T00:18:58;32.72;;;13.48;;
40993;SDS011;26722;43.212;27.932;2023-02-21T00:21:42;29.50;;;12.85;;
40993;SDS011;26722;43.212;27.932;2023-02-21T00:24:26;23.42;;;12.55;;
40993;SDS011;26722;43.212;27.932;2023-02-21T00:27:10;22.85;;;11.93;;
40993;SDS011;26722;43.212;27.932;2023-02-21T00:29:54;24.75;;;11.25;;
40993;SDS011;26722;43.212;27.932;2023-02-21T00:32:38;22.42;;;12.48;;
40993;SDS011;26722;43.212;27.932;2023-02-21T00:35:22;24.63;;;10.68;;
40993;SDS011;26722;43.212;27.932;2023-02-21T00:38:06;28.02;;;13.00;;
40993;SDS011;26722;43.212;27.932;2023-02-21T00:40:50;26.58;;;11.82;;
40993;SDS011;26722;43.212;27.932;2023-02-21T00:43:34;26.45;;;12.27;;
40993;SDS011;26722;43.212;27.932;2023-02-21T00:46:19;21.13;;;9.65;;
40993;SDS011;26722;43.212;27.932;2023-02-21T00:49:03;31.48;;;12.70;;
40993;SDS011;26722;43.212;27.932;2023-02-21T00:51:48;23.73;;;11.18;;
40993;SDS011;26722;43.212;27.932;2023-02-21T00:54:32;24.20;;;11.13;;
40993;SDS011;26722;43.212;27.932;2023-02-21T00:57:17;23.35;;;10.13;;
40993;SDS011;26722;43.212;27.932;2023-02-21T01:00:01;23.15;;;10.82;;
40993;SDS011;26722;43.212;27.932;2023-02-21T01:02:46;22.40;;;11.10;;
40993;SDS011;26722;43.212;27.932;2023-02-21T01:05:30;24.23;;;11.98;;
40993;SDS011;26722;43.212;27.932;2023-02-21T01:08:14;17.88;;;8.93;;
40993;SDS011;26722;43.212;27.932;2023-02-21T01:10:58;15.48;;;8.07;;
40993;SDS011;26722;43.212;27.932;2023-02-21T01:13:42;14.02;;;7.18;;
40993;SDS011;26722;43.212;27.932;2023-02-21T01:16:32;15.70;;;7.97;;
40993;SDS011;26722;43.212;27.932;2023-02-21T01:19:16;13.20;;;6.65;;
40993;SDS011;26722;43.212;27.932;2023-02-21T01:22:04;11.27;;;6.47;;
40993;SDS011;26722;43.212;27.932;2023-02-21T01:24:48;14.55;;;5.75;;
40993;SDS011;26722;43.212;27.932;2023-02-21T01:27:33;10.93;;;6.30;;
40993;SDS011;26722;43.212;27.932;2023-02-21T01:30:17;13.48;;;5.32;;
40993;SDS011;26722;43.212;27.932;2023-02-21T01:33:01;16.48;;;6.85;;
40993;SDS011;26722;43.212;27.932;2023-02-21T01:35:44;10.85;;;6.30;;
40993;SDS011;26722;43.212;27.932;2023-02-21T01:38:31;17.35;;;7.22;;
40993;SDS011;26722;43.212;27.932;2023-02-21T01:41:16;17.38;;;7.85;;
40993;SDS011;26722;43.212;27.932;2023-02-21T01:44:04;18.63;;;8.30;;
40993;SDS011;26722;43.212;27.932;2023-02-21T01:46:50;17.77;;;9.50;;
40993;SDS011;26722;43.212;27.932;2023-02-21T01:49:37;20.95;;;9.45;;
40993;SDS011;26722;43.212;27.932;2023-02-21T01:52:23;16.83;;;9.82;;
40993;SDS011;26722;43.212;27.932;2023-02-21T01:55:08;18.33;;;9.48;;
40993;SDS011;26722;43.212;27.932;2023-02-21T02:00:37;23.52;;;10.05;;
40993;SDS011;26722;43.212;27.932;2023-02-21T02:03:21;25.52;;;10.77;;
40993;SDS011;26722;43.212;27.932;2023-02-21T02:06:07;22.05;;;11.68;;
40993;SDS011;26722;43.212;27.932;2023-02-21T02:08:54;26.90;;;12.68;;
40993;SDS011;26722;43.212;27.932;2023-02-21T02:26:14;26.33;;;11.68;;
40993;SDS011;26722;43.212;27.932;2023-02-21T02:43:56;17.08;;;8.65;;
40993;SDS011;26722;43.212;27.932;2023-02-21T02:46:29;15.00;;;8.32;;
40993;SDS011;26722;43.212;27.932;2023-02-21T02:49:04;19.95;;;8.00;;
40993;SDS011;26722;43.212;27.932;2023-02-21T02:51:36;10.95;;;6.50;;
40993;SDS011;26722;43.212;27.932;2023-02-21T02:54:02;6.70;;;4.05;;
40993;SDS011;26722;43.212;27.932;2023-02-21T02:56:28;8.32;;;4.32;;
40993;SDS011;26722;43.212;27.932;2023-02-21T02:59:13;8.80;;;3.83;;
40993;SDS011;26722;43.212;27.932;2023-02-21T03:12:18;11.70;;;5.35;;
40993;SDS011;26722;43.212;27.932;2023-02-21T03:17:48;6.35;;;3.80;;
40993;SDS011;26722;43.212;27.932;2023-02-21T03:20:23;9.57;;;4.68;;
40993;SDS011;26722;43.212;27.932;2023-02-21T03:22:51;7.57;;;4.10;;
40993;SDS011;26722;43.212;27.932;2023-02-21T03:25:19;8.30;;;4.07;;
40993;SDS011;26722;43.212;27.932;2023-02-21T03:27:46;7.88;;;3.53;;
40993;SDS011;26722;43.212;27.932;2023-02-21T03:30:15;7.90;;;3.55;;
40993;SDS011;26722;43.212;27.932;2023-02-21T03:32:44;6.22;;;3.50;;
40993;SDS011;26722;43.212;27.932;2023-02-21T03:35:13;4.93;;;2.58;;
40993;SDS011;26722;43.212;27.932;2023-02-21T03:37:43;4.70;;;2.95;;
40993;SDS011;26722;43.212;27.932;2023-02-21T03:40:21;3.47;;;1.95;;
40993;SDS011;26722;43.212;27.932;2023-02-21T03:42:48;6.05;;;1.92;;
40993;SDS011;26722;43.212;27.932;2023-02-21T03:45:17;4.60;;;2.10;;
40993;SDS011;26722;43.212;27.932;2023-02-21T03:47:42;3.47;;;2.05;;
40993;SDS011;26722;43.212;27.932;2023-02-21T03:50:08;5.35;;;2.03;;
40993;SDS011;26722;43.212;27.932;2023-02-21T03:52:33;3.90;;;2.17;;
40993;SDS011;26722;43.212;27.932;2023-02-21T03:54:59;4.10;;;1.90;;
40993;SDS011;26722;43.212;27.932;2023-02-21T03:57:24;2.67;;;2.00;;
40993;SDS011;26722;43.212;27.932;2023-02-21T03:59:50;3.95;;;2.17;;
40993;SDS011;26722;43.212;27.932;2023-02-21T04:02:16;3.78;;;1.58;;
40993;SDS011;26722;43.212;27.932;2023-02-21T04:04:43;4.88;;;2.20;;
40993;SDS011;26722;43.212;27.932;2023-02-21T04:07:09;2.75;;;1.60;;
40993;SDS011;26722;43.212;27.932;2023-02-21T04:09:35;3.60;;;1.25;;
40993;SDS011;26722;43.212;27.932;2023-02-21T04:12:02;2.85;;;1.77;;
40993;SDS011;26722;43.212;27.932;2023-02-21T04:14:28;3.42;;;1.42;;
40993;SDS011;26722;43.212;27.932;2023-02-21T04:16:54;5.75;;;2.08;;
40993;SDS011;26722;43.212;27.932;2023-02-21T04:19:19;5.13;;;1.75;;
40993;SDS011;26722;43.212;27.932;2023-02-21T04:21:44;3.22;;;1.55;;
40993;SDS011;26722;43.212;27.932;2023-02-21T04:24:10;2.58;;;1.80;;
40993;SDS011;26722;43.212;27.932;2023-02-21T04:26:35;4.65;;;1.73;;
40993;SDS011;26722;43.212;27.932;2023-02-21T04:29:01;3.85;;;1.70;;
40993;SDS011;26722;43.212;27.932;2023-02-21T04:31:27;4.00;;;1.67;;
40993;SDS011;26722;43.212;27.932;2023-02-21T04:33:52;3.22;;;1.70;;
40993;SDS011;26722;43.212;27.932;2023-02-21T04:36:18;2.33;;;1.40;;
40993;SDS011;26722;43.212;27.932;2023-02-21T04:38:43;2.72;;;1.60;;
40993;SDS011;26722;43.212;27.932;2023-02-21T04:41:08;3.92;;;1.50;;
40993;SDS011;26722;43.212;27.932;2023-02-21T04:43:35;3.60;;;1.60;;
40993;SDS011;26722;43.212;27.932;2023-02-21T04:46:00;4.15;;;2.00;;
40993;SDS011;26722;43.212;27.932;2023-02-21T04:48:25;8.45;;;1.85;;
40993;SDS011;26722;43.212;27.932;2023-02-21T04:50:51;4.50;;;2.58;;
40993;SDS011;26722;43.212;27.932;2023-02-21T04:53:17;5.05;;;1.95;;
40993;SDS011;26722;43.212;27.932;2023-02-21T04:55:42;6.32;;;2.20;;
40993;SDS011;26722;43.212;27.932;2023-02-21T04:58:08;9.13;;;2.58;;
40993;SDS011;26722;43.212;27.932;2023-02-21T05:00:34;6.82;;;2.10;;
40993;SDS011;26722;43.212;27.932;2023-02-21T05:02:59;7.82;;;2.38;;
40993;SDS011;26722;43.212;27.932;2023-02-21T05:05:25;6.80;;;2.45;;
40993;SDS011;26722;43.212;27.932;2023-02-21T05:07:50;7.35;;;2.75;;
40993;SDS011;26722;43.212;27.932;2023-02-21T05:10:16;3.60;;;2.25;;
40993;SDS011;26722;43.212;27.932;2023-02-21T05:12:42;5.85;;;2.10;;
40993;SDS011;26722;43.212;27.932;2023-02-21T05:15:09;5.10;;;1.98;;
40993;SDS011;26722;43.212;27.932;2023-02-21T05:17:36;4.63;;;2.10;;
40993;SDS011;26722;43.212;27.932;2023-02-21T05:20:02;6.78;;;2.10;;
40993;SDS011;26722;43.212;27.932;2023-02-21T05:22:28;9.32;;;2.45;;
40993;SDS011;26722;43.212;27.932;2023-02-21T05:24:54;12.38;;;2.92;;
40993;SDS011;26722;43.212;27.932;2023-02-21T05:27:19;13.80;;;4.25;;
40993;SDS011;26722;43.212;27.932;2023-02-21T05:29:46;11.05;;;4.30;;
40993;SDS011;26722;43.212;27.932;2023-02-21T05:32:17;15.93;;;5.05;;
40993;SDS011;26722;43.212;27.932;2023-02-21T05:34:44;13.35;;;5.30;;
40993;SDS011;26722;43.212;27.932;2023-02-21T05:37:12;11.32;;;5.88;;
40993;SDS011;26722;43.212;27.932;2023-02-21T05:39:38;15.82;;;5.57;;
40993;SDS011;26722;43.212;27.932;2023-02-21T05:42:04;17.40;;;5.60;;
40993;SDS011;26722;43.212;27.932;2023-02-21T05:44:29;14.50;;;5.93;;
40993;SDS011;26722;43.212;27.932;2023-02-21T05:46:55;10.45;;;4.88;;
40993;SDS011;26722;43.212;27.932;2023-02-21T05:49:20;18.02;;;5.30;;
40993;SDS011;26722;43.212;27.932;2023-02-21T05:51:45;14.27;;;5.47;;
40993;SDS011;26722;43.212;27.932;2023-02-21T05:54:14;14.52;;;4.35;;
40993;SDS011;26722;43.212;27.932;2023-02-21T05:56:42;10.63;;;4.20;;
40993;SDS011;26722;43.212;27.932;2023-02-21T05:59:09;12.98;;;4.65;;
40993;SDS011;26722;43.212;27.932;2023-02-21T06:01:35;18.45;;;4.43;;
40993;SDS011;26722;43.212;27.932;2023-02-21T06:04:01;10.70;;;4.10;;
40993;SDS011;26722;43.212;27.932;2023-02-21T06:06:26;14.23;;;3.88;;
40993;SDS011;26722;43.212;27.932;2023-02-21T06:08:52;11.07;;;3.88;;
40993;SDS011;26722;43.212;27.932;2023-02-21T06:11:21;10.65;;;4.00;;
40993;SDS011;26722;43.212;27.932;2023-02-21T06:13:49;11.10;;;3.33;;
40993;SDS011;26722;43.212;27.932;2023-02-21T06:16:16;8.75;;;3.80;;
40993;SDS011;26722;43.212;27.932;2023-02-21T06:18:42;7.65;;;3.83;;
40993;SDS011;26722;43.212;27.932;2023-02-21T06:21:07;7.22;;;2.80;;
40993;SDS011;26722;43.212;27.932;2023-02-21T06:23:33;9.00;;;3.60;;
40993;SDS011;26722;43.212;27.932;2023-02-21T06:25:58;10.32;;;3.50;;
40993;SDS011;26722;43.212;27.932;2023-02-21T06:28:30;9.02;;;3.20;;
40993;SDS011;26722;43.212;27.932;2023-02-21T06:30:55;8.57;;;3.63;;
40993;SDS011;26722;43.212;27.932;2023-02-21T06:33:21;10.48;;;3.47;;
40993;SDS011;26722;43.212;27.932;2023-02-21T06:35:48;6.82;;;3.13;;
40993;SDS011;26722;43.212;27.932;2023-02-21T06:38:13;10.02;;;3.17;;
40993;SDS011;26722;43.212;27.932;2023-02-21T06:40:39;7.43;;;3.75;;
40993;SDS011;26722;43.212;27.932;2023-02-21T06:43:04;7.75;;;3.42;;
40993;SDS011;26722;43.212;27.932;2023-02-21T06:45:30;8.77;;;3.25;;
40993;SDS011;26722;43.212;27.932;2023-02-21T06:47:55;13.30;;;4.47;;
40993;SDS011;26722;43.212;27.932;2023-02-21T06:50:21;16.80;;;4.50;;
40993;SDS011;26722;43.212;27.932;2023-02-21T06:52:46;19.92;;;5.72;;
40993;SDS011;26722;43.212;27.932;2023-02-21T06:55:12;11.68;;;5.80;;
40993;SDS011;26722;43.212;27.932;2023-02-21T06:57:37;32.05;;;7.22;;
40993;SDS011;26722;43.212;27.932;2023-02-21T07:00:04;14.40;;;7.28;;
40993;SDS011;26722;43.212;27.932;2023-02-21T07:02:30;17.15;;;6.70;;
40993;SDS011;26722;43.212;27.932;2023-02-21T07:04:55;19.50;;;6.65;;
40993;SDS011;26722;43.212;27.932;2023-02-21T07:07:21;13.30;;;6.18;;
40993;SDS011;26722;43.212;27.932;2023-02-21T07:09:46;14.80;;;7.10;;
40993;SDS011;26722;43.212;27.932;2023-02-21T07:12:12;14.13;;;6.75;;
40993;SDS011;26722;43.212;27.932;2023-02-21T07:14:37;15.18;;;6.75;;
40993;SDS011;26722;43.212;27.932;2023-02-21T07:17:03;13.27;;;6.07;;
40993;SDS011;26722;43.212;27.932;2023-02-21T07:19:28;12.55;;;6.93;;
40993;SDS011;26722;43.212;27.932;2023-02-21T07:21:54;15.60;;;6.90;;
40993;SDS011;26722;43.212;27.932;2023-02-21T07:24:19;15.88;;;5.45;;
40993;SDS011;26722;43.212;27.932;2023-02-21T07:26:45;10.45;;;5.28;;
40993;SDS011;26722;43.212;27.932;2023-02-21T07:29:10;13.35;;;5.53;;
40993;SDS011;26722;43.212;27.932;2023-02-21T07:31:39;15.35;;;5.65;;
40993;SDS011;26722;43.212;27.932;2023-02-21T07:34:04;11.98;;;5.10;;
40993;SDS011;26722;43.212;27.932;2023-02-21T07:36:30;12.52;;;5.40;;
40993;SDS011;26722;43.212;27.932;2023-02-21T07:38:55;17.85;;;5.07;;
40993;SDS011;26722;43.212;27.932;2023-02-21T07:41:21;15.82;;;4.57;;
40993;SDS011;26722;43.212;27.932;2023-02-21T07:43:47;10.77;;;4.15;;
40993;SDS011;26722;43.212;27.932;2023-02-21T07:46:13;18.10;;;4.45;;
40993;SDS011;26722;43.212;27.932;2023-02-21T07:48:39;10.10;;;4.82;;
40993;SDS011;26722;43.212;27.932;2023-02-21T07:51:05;8.05;;;3.83;;
40993;SDS011;26722;43.212;27.932;2023-02-21T07:53:32;12.57;;;4.47;;
40993;SDS011;26722;43.212;27.932;2023-02-21T07:55:58;12.55;;;4.93;;
40993;SDS011;26722;43.212;27.932;2023-02-21T07:58:23;9.35;;;4.95;;
40993;SDS011;26722;43.212;27.932;2023-02-21T08:00:50;10.35;;;4.45;;
40993;SDS011;26722;43.212;27.932;2023-02-21T08:03:16;14.95;;;3.80;;
40993;SDS011;26722;43.212;27.932;2023-02-21T08:05:42;9.75;;;2.97;;
40993;SDS011;26722;43.212;27.932;2023-02-21T08:08:08;11.18;;;3.90;;
40993;SDS011;26722;43.212;27.932;2023-02-21T08:10:34;10.45;;;3.70;;
40993;SDS011;26722;43.212;27.932;2023-02-21T08:13:00;9.35;;;3.03;;
40993;SDS011;26722;43.212;27.932;2023-02-21T08:15:26;10.13;;;3.13;;
40993;SDS011;26722;43.212;27.932;2023-02-21T08:17:51;6.40;;;3.03;;
40993;SDS011;26722;43.212;27.932;2023-02-21T08:20:17;8.68;;;2.80;;
40993;SDS011;26722;43.212;27.932;2023-02-21T08:22:43;11.35;;;2.90;;
40993;SDS011;26722;43.212;27.932;2023-02-21T08:25:09;9.13;;;3.10;;
40993;SDS011;26722;43.212;27.932;2023-02-21T08:27:37;6.70;;;2.55;;
40993;SDS011;26722;43.212;27.932;2023-02-21T08:30:04;8.50;;;2.78;;
40993;SDS011;26722;43.212;27.932;2023-02-21T08:32:30;10.63;;;3.20;;
40993;SDS011;26722;43.212;27.932;2023-02-21T08:34:55;7.53;;;2.80;;
40993;SDS011;26722;43.212;27.932;2023-02-21T08:37:21;7.40;;;3.50;;
40993;SDS011;26722;43.212;27.932;2023-02-21T08:39:47;8.43;;;3.10;;
40993;SDS011;26722;43.212;27.932;2023-02-21T08:42:16;8.40;;;2.90;;
40993;SDS011;26722;43.212;27.932;2023-02-21T08:44:45;5.72;;;2.70;;
40993;SDS011;26722;43.212;27.932;2023-02-21T08:47:11;7.38;;;3.38;;
40993;SDS011;26722;43.212;27.932;2023-02-21T08:49:38;10.68;;;3.90;;
40993;SDS011;26722;43.212;27.932;2023-02-21T08:52:06;9.95;;;3.33;;
40993;SDS011;26722;43.212;27.932;2023-02-21T08:54:32;9.10;;;3.63;;
40993;SDS011;26722;43.212;27.932;2023-02-21T08:56:57;9.90;;;2.78;;
40993;SDS011;26722;43.212;27.932;2023-02-21T08:59:24;7.07;;;2.63;;
40993;SDS011;26722;43.212;27.932;2023-02-21T09:01:49;6.30;;;3.05;;
40993;SDS011;26722;43.212;27.932;2023-02-21T09:04:15;7.15;;;3.25;;
40993;SDS011;26722;43.212;27.932;2023-02-21T09:06:41;8.75;;;3.38;;
40993;SDS011;26722;43.212;27.932;2023-02-21T09:09:06;5.22;;;2.70;;
40993;SDS011;26722;43.212;27.932;2023-02-21T09:11:31;7.78;;;2.70;;
40993;SDS011;26722;43.212;27.932;2023-02-21T09:13:57;6.90;;;3.15;;
40993;SDS011;26722;43.212;27.932;2023-02-21T09:16:23;6.47;;;3.22;;
40993;SDS011;26722;43.212;27.932;2023-02-21T09:18:55;8.82;;;4.22;;
40993;SDS011;26722;43.212;27.932;2023-02-21T09:21:22;6.15;;;3.47;;
40993;SDS011;26722;43.212;27.932;2023-02-21T09:23:50;9.77;;;2.85;;
40993;SDS011;26722;43.212;27.932;2023-02-21T09:26:17;13.57;;;3.53;;
40993;SDS011;26722;43.212;27.932;2023-02-21T09:28:43;12.27;;;3.33;;
40993;SDS011;26722;43.212;27.932;2023-02-21T09:31:08;7.95;;;3.05;;
40993;SDS011;26722;43.212;27.932;2023-02-21T09:33:37;6.72;;;3.30;;
40993;SDS011;26722;43.212;27.932;2023-02-21T09:36:06;8.52;;;3.15;;
40993;SDS011;26722;43.212;27.932;2023-02-21T09:38:32;5.55;;;3.10;;
40993;SDS011;26722;43.212;27.932;2023-02-21T09:40:58;8.65;;;3.70;;
40993;SDS011;26722;43.212;27.932;2023-02-21T09:46:01;9.38;;;3.72;;
40993;SDS011;26722;43.212;27.932;2023-02-21T09:48:39;7.45;;;3.33;;
40993;SDS011;26722;43.212;27.932;2023-02-21T09:51:07;9.88;;;3.03;;
40993;SDS011;26722;43.212;27.932;2023-02-21T09:53:38;8.93;;;2.33;;
40993;SDS011;26722;43.212;27.932;2023-02-21T09:58:40;10.60;;;3.20;;
40993;SDS011;26722;43.212;27.932;2023-02-21T10:01:28;10.02;;;2.88;;
40993;SDS011;26722;43.212;27.932;2023-02-21T10:07:00;12.75;;;3.45;;
40993;SDS011;26722;43.212;27.932;2023-02-21T10:09:47;5.65;;;2.65;;
40993;SDS011;26722;43.212;27.932;2023-02-21T10:17:59;9.90;;;3.95;;
40993;SDS011;26722;43.212;27.932;2023-02-21T10:21:08;7.43;;;2.83;;
40993;SDS011;26722;43.212;27.932;2023-02-21T10:23:43;9.10;;;2.88;;
40993;SDS011;26722;43.212;27.932;2023-02-21T10:26:23;8.95;;;2.63;;
40993;SDS011;26722;43.212;27.932;2023-02-21T10:28:52;11.30;;;2.65;;
40993;SDS011;26722;43.212;27.932;2023-02-21T10:33:53;12.27;;;2.33;;
40993;SDS011;26722;43.212;27.932;2023-02-21T10:36:20;7.93;;;3.10;;
40993;SDS011;26722;43.212;27.932;2023-02-21T10:41:46;14.75;;;3.25;;
40993;SDS011;26722;43.212;27.932;2023-02-21T10:44:34;12.23;;;2.95;;
40993;SDS011;26722;43.212;27.932;2023-02-21T10:49:39;7.82;;;2.50;;
40993;SDS011;26722;43.212;27.932;2023-02-21T10:52:13;8.48;;;2.40;;
40993;SDS011;26722;43.212;27.932;2023-02-21T10:57:30;9.07;;;2.33;;
40993;SDS011;26722;43.212;27.932;2023-02-21T10:59:57;6.97;;;2.13;;
40993;SDS011;26722;43.212;27.932;2023-02-21T11:02:28;8.23;;;2.20;;
40993;SDS011;26722;43.212;27.932;2023-02-21T11:05:11;8.02;;;1.92;;
40993;SDS011;26722;43.212;27.932;2023-02-21T11:07:40;10.85;;;2.40;;
40993;SDS011;26722;43.212;27.932;2023-02-21T11:10:27;11.00;;;2.50;;
40993;SDS011;26722;43.212;27.932;2023-02-21T11:13:18;13.50;;;2.65;;
40993;SDS011;26722;43.212;27.932;2023-02-21T11:15:45;16.20;;;2.80;;
40993;SDS011;26722;43.212;27.932;2023-02-21T11:18:13;18.20;;;3.33;;
40993;SDS011;26722;43.212;27.932;2023-02-21T11:20:46;22.50;;;4.72;;
40993;SDS011;26722;43.212;27.932;2023-02-21T11:23:18;20.10;;;4.70;;
40993;SDS011;26722;43.212;27.932;2023-02-21T11:26:06;12.13;;;4.57;;
40993;SDS011;26722;43.212;27.932;2023-02-21T11:28:37;24.15;;;6.18;;
40993;SDS011;26722;43.212;27.932;2023-02-21T11:31:46;18.98;;;4.03;;
40993;SDS011;26722;43.212;27.932;2023-02-21T11:33:58;30.77;;;4.00;;
40993;SDS011;26722;43.212;27.932;2023-02-21T11:36:30;17.33;;;3.25;;
40993;SDS011;26722;43.212;27.932;2023-02-21T11:39:05;29.95;;;4.47;;
40993;SDS011;26722;43.212;27.932;2023-02-21T11:43:56;19.33;;;5.45;;
40993;SDS011;26722;43.212;27.932;2023-02-21T11:52:12;12.57;;;2.75;;
40993;SDS011;26722;43.212;27.932;2023-02-21T11:54:44;27.92;;;2.40;;
40993;SDS011;26722;43.212;27.932;2023-02-21T11:57:14;25.92;;;2.47;;
40993;SDS011;26722;43.212;27.932;2023-02-21T11:59:58;21.27;;;2.95;;
40993;SDS011;26722;43.212;27.932;2023-02-21T12:02:38;22.00;;;2.70;;
40993;SDS011;26722;43.212;27.932;2023-02-21T12:05:29;22.67;;;2.72;;
40993;SDS011;26722;43.212;27.932;2023-02-21T12:13:31;15.15;;;2.20;;
40993;SDS011;26722;43.212;27.932;2023-02-21T12:16:24;16.40;;;2.20;;
40993;SDS011;26722;43.212;27.932;2023-02-21T12:22:21;11.70;;;2.20;;
40993;SDS011;26722;43.212;27.932;2023-02-21T12:35:53;12.30;;;3.50;;
40993;SDS011;26722;43.212;27.932;2023-02-21T13:00:19;14.98;;;3.13;;
40993;SDS011;26722;43.212;27.932;2023-02-21T13:11:19;14.20;;;1.92;;
40993;SDS011;26722;43.212;27.932;2023-02-21T13:13:36;5.57;;;1.55;;
40993;SDS011;26722;43.212;27.932;2023-02-21T13:16:06;10.00;;;1.73;;
40993;SDS011;26722;43.212;27.932;2023-02-21T13:28:04;4.38;;;1.52;;
40993;SDS011;26722;43.212;27.932;2023-02-21T13:30:39;6.90;;;1.73;;
40993;SDS011;26722;43.212;27.932;2023-02-21T13:35:55;7.25;;;1.77;;
40993;SDS011;26722;43.212;27.932;2023-02-21T13:38:23;9.13;;;2.03;;
40993;SDS011;26722;43.212;27.932;2023-02-21T13:40:52;7.50;;;1.75;;
40993;SDS011;26722;43.212;27.932;2023-02-21T13:43:28;5.32;;;1.73;;
40993;SDS011;26722;43.212;27.932;2023-02-21T13:57:36;5.57;;;1.92;;
40993;SDS011;26722;43.212;27.932;2023-02-21T14:02:55;5.10;;;1.70;;
40993;SDS011;26722;43.212;27.932;2023-02-21T14:05:26;4.22;;;1.60;;
40993;SDS011;26722;43.212;27.932;2023-02-21T14:10:58;8.07;;;1.42;;
40993;SDS011;26722;43.212;27.932;2023-02-21T14:13:41;4.53;;;2.28;;
40993;SDS011;26722;43.212;27.932;2023-02-21T14:16:23;14.52;;;1.95;;
40993;SDS011;26722;43.212;27.932;2023-02-21T14:19:08;7.70;;;1.95;;
40993;SDS011;26722;43.212;27.932;2023-02-21T14:37:16;6.28;;;1.92;;
40993;SDS011;26722;43.212;27.932;2023-02-21T14:50:59;10.48;;;2.10;;
40993;SDS011;26722;43.212;27.932;2023-02-21T14:56:50;4.70;;;1.70;;
40993;SDS011;26722;43.212;27.932;2023-02-21T14:59:30;7.10;;;1.60;;
40993;SDS011;26722;43.212;27.932;2023-02-21T15:05:13;6.43;;;1.98;;
40993;SDS011;26722;43.212;27.932;2023-02-21T15:10:25;11.43;;;1.95;;
40993;SDS011;26722;43.212;27.932;2023-02-21T15:15:26;9.57;;;2.30;;
40993;SDS011;26722;43.212;27.932;2023-02-21T15:18:02;6.15;;;2.20;;
40993;SDS011;26722;43.212;27.932;2023-02-21T15:20:31;5.80;;;2.22;;
40993;SDS011;26722;43.212;27.932;2023-02-21T15:25:40;7.15;;;1.80;;
40993;SDS011;26722;43.212;27.932;2023-02-21T15:28:17;17.05;;;2.28;;
40993;SDS011;26722;43.212;27.932;2023-02-21T15:30:53;5.57;;;1.90;;
40993;SDS011;26722;43.212;27.932;2023-02-21T15:33:21;11.00;;;2.10;;
40993;SDS011;26722;43.212;27.932;2023-02-21T15:35:52;8.70;;;2.20;;
40993;SDS011;26722;43.212;27.932;2023-02-21T15:38:26;12.68;;;2.10;;
40993;SDS011;26722;43.212;27.932;2023-02-21T15:40:53;4.82;;;1.40;;
40993;SDS011;26722;43.212;27.932;2023-02-21T15:43:30;10.73;;;2.40;;
40993;SDS011;26722;43.212;27.932;2023-02-21T15:46:05;6.00;;;2.20;;
40993;SDS011;26722;43.212;27.932;2023-02-21T15:48:34;7.68;;;2.40;;
40993;SDS011;26722;43.212;27.932;2023-02-21T15:51:01;9.48;;;2.63;;
40993;SDS011;26722;43.212;27.932;2023-02-21T15:53:28;7.47;;;2.80;;
40993;SDS011;26722;43.212;27.932;2023-02-21T15:55:54;9.05;;;2.10;;
40993;SDS011;26722;43.212;27.932;2023-02-21T16:01:39;9.80;;;2.88;;
40993;SDS011;26722;43.212;27.932;2023-02-21T16:04:21;7.15;;;2.85;;
40993;SDS011;26722;43.212;27.932;2023-02-21T16:06:48;13.73;;;2.58;;
40993;SDS011;26722;43.212;27.932;2023-02-21T16:12:36;5.55;;;2.15;;
40993;SDS011;26722;43.212;27.932;2023-02-21T16:14:39;7.18;;;2.17;;
40993;SDS011;26722;43.212;27.932;2023-02-21T16:17:26;8.90;;;2.30;;
40993;SDS011;26722;43.212;27.932;2023-02-21T16:19:57;17.48;;;2.78;;
40993;SDS011;26722;43.212;27.932;2023-02-21T16:22:39;13.85;;;2.80;;
40993;SDS011;26722;43.212;27.932;2023-02-21T16:27:37;12.88;;;2.75;;
40993;SDS011;26722;43.212;27.932;2023-02-21T16:30:04;9.75;;;2.70;;
40993;SDS011;26722;43.212;27.932;2023-02-21T16:32:31;6.78;;;2.63;;
40993;SDS011;26722;43.212;27.932;2023-02-21T16:34:57;7.80;;;2.50;;
40993;SDS011;26722;43.212;27.932;2023-02-21T16:37:23;8.30;;;2.28;;
40993;SDS011;26722;43.212;27.932;2023-02-21T16:39:49;9.20;;;2.95;;
40993;SDS011;26722;43.212;27.932;2023-02-21T16:42:14;11.65;;;2.85;;
40993;SDS011;26722;43.212;27.932;2023-02-21T16:44:43;5.45;;;2.45;;
40993;SDS011;26722;43.212;27.932;2023-02-21T16:47:13;11.38;;;2.80;;
40993;SDS011;26722;43.212;27.932;2023-02-21T16:49:40;11.07;;;3.83;;
40993;SDS011;26722;43.212;27.932;2023-02-21T16:52:08;12.00;;;3.17;;
40993;SDS011;26722;43.212;27.932;2023-02-21T16:54:37;6.93;;;3.28;;
40993;SDS011;26722;43.212;27.932;2023-02-21T16:57:03;8.75;;;2.85;;
40993;SDS011;26722;43.212;27.932;2023-02-21T16:59:28;10.45;;;2.80;;
40993;SDS011;26722;43.212;27.932;2023-02-21T17:01:54;8.95;;;2.85;;
40993;SDS011;26722;43.212;27.932;2023-02-21T17:04:20;7.53;;;2.78;;
40993;SDS011;26722;43.212;27.932;2023-02-21T17:06:55;9.98;;;2.83;;
40993;SDS011;26722;43.212;27.932;2023-02-21T17:09:24;8.50;;;3.15;;
40993;SDS011;26722;43.212;27.932;2023-02-21T17:11:53;8.07;;;3.20;;
40993;SDS011;26722;43.212;27.932;2023-02-21T17:14:19;11.30;;;3.40;;
40993;SDS011;26722;43.212;27.932;2023-02-21T17:16:45;12.63;;;4.60;;
40993;SDS011;26722;43.212;27.932;2023-02-21T17:19:12;8.70;;;4.00;;
40993;SDS011;26722;43.212;27.932;2023-02-21T17:21:39;7.75;;;4.13;;
40993;SDS011;26722;43.212;27.932;2023-02-21T17:24:04;12.02;;;4.18;;
40993;SDS011;26722;43.212;27.932;2023-02-21T17:26:30;16.73;;;4.03;;
40993;SDS011;26722;43.212;27.932;2023-02-21T17:28:56;10.13;;;4.40;;
40993;SDS011;26722;43.212;27.932;2023-02-21T17:31:21;10.77;;;4.50;;
40993;SDS011;26722;43.212;27.932;2023-02-21T17:33:50;12.55;;;4.07;;
40993;SDS011;26722;43.212;27.932;2023-02-21T17:36:19;10.68;;;3.75;;
40993;SDS011;26722;43.212;27.932;2023-02-21T17:38:47;11.45;;;4.25;;
40993;SDS011;26722;43.212;27.932;2023-02-21T17:41:13;13.70;;;4.28;;
40993;SDS011;26722;43.212;27.932;2023-02-21T17:43:39;8.00;;;3.60;;
40993;SDS011;26722;43.212;27.932;2023-02-21T17:46:08;10.25;;;4.03;;
40993;SDS011;26722;43.212;27.932;2023-02-21T17:48:34;8.10;;;3.47;;
40993;SDS011;26722;43.212;27.932;2023-02-21T17:51:00;8.45;;;3.50;;
40993;SDS011;26722;43.212;27.932;2023-02-21T17:53:25;9.35;;;3.33;;
40993;SDS011;26722;43.212;27.932;2023-02-21T17:55:52;9.48;;;2.95;;
40993;SDS011;26722;43.212;27.932;2023-02-21T17:58:18;13.73;;;3.08;;
40993;SDS011;26722;43.212;27.932;2023-02-21T18:00:44;8.60;;;2.80;;
40993;SDS011;26722;43.212;27.932;2023-02-21T18:03:10;10.15;;;2.70;;
40993;SDS011;26722;43.212;27.932;2023-02-21T18:05:36;6.57;;;2.78;;
40993;SDS011;26722;43.212;27.932;2023-02-21T18:08:02;7.50;;;2.20;;
40993;SDS011;26722;43.212;27.932;2023-02-21T18:10:28;5.95;;;2.67;;
40993;SDS011;26722;43.212;27.932;2023-02-21T18:12:54;6.05;;;2.38;;
40993;SDS011;26722;43.212;27.932;2023-02-21T18:15:21;8.23;;;2.78;;
40993;SDS011;26722;43.212;27.932;2023-02-21T18:17:48;6.80;;;3.00;;